Time;durP1;ratioP1;P1;durP2;ratioP2;P2;SDS_P1;SDS_P2;PMS_P1;PMS_P2;Temp;Humidity;BMP_temperature;BMP_pressure;BME280_temperature;BME280_humidity;BME280_pressure;Samples;Min_cycle;Max_cycle;Signal;HPM_P1;HPM_P2
2021/01/16 00:00:26;;;;;;;10.90;6.30;;;0.70;99.90;;;;;;1862856;77;21158;-73
2021/01/16 00:02:52;;;;;;;9.17;5.67;;;0.80;99.90;;;;;;1858776;77;21119;-72
2021/01/16 00:05:18;;;;;;;9.50;5.97;;;0.80;99.90;;;;;;1867180;77;21488;-73
2021/01/16 00:07:44;;;;;;;11.00;5.62;;;0.70;99.90;;;;;;1867519;76;21509;-71
2021/01/16 00:10:10;;;;;;;8.23;5.72;;;0.70;99.90;;;;;;1867678;77;21045;-71
2021/01/16 00:12:37;;;;;;;11.00;5.65;;;0.70;99.90;;;;;;1864318;77;21049;-73
2021/01/16 00:15:03;;;;;;;8.13;5.62;;;0.70;99.90;;;;;;1864070;77;21072;-72
2021/01/16 00:17:29;;;;;;;10.78;5.30;;;0.70;99.90;;;;;;1863005;77;21080;-71
2021/01/16 00:19:55;;;;;;;9.53;6.28;;;0.70;99.90;;;;;;1862061;77;21198;-72
2021/01/16 00:22:21;;;;;;;9.43;5.22;;;0.70;99.90;;;;;;1857070;77;21088;-71
2021/01/16 00:24:47;;;;;;;9.60;5.65;;;0.70;99.90;;;;;;1863165;77;21093;-71
2021/01/16 00:27:13;;;;;;;9.35;5.40;;;0.70;99.90;;;;;;1866193;77;21486;-72
2021/01/16 00:29:39;;;;;;;9.30;5.17;;;0.70;99.90;;;;;;1870167;77;21570;-72
2021/01/16 00:32:06;;;;;;;10.70;5.45;;;0.70;99.90;;;;;;1854691;77;21574;-72
2021/01/16 00:34:32;;;;;;;15.32;5.90;;;0.70;99.90;;;;;;1872109;75;21076;-73
2021/01/16 00:36:58;;;;;;;11.20;5.92;;;0.70;99.90;;;;;;1867597;77;21077;-72
2021/01/16 00:39:24;;;;;;;8.80;5.50;;;0.70;99.90;;;;;;1867171;77;21080;-71
2021/01/16 00:41:50;;;;;;;7.37;5.35;;;0.70;99.90;;;;;;1872937;77;21081;-73
2021/01/16 00:44:16;;;;;;;11.20;5.72;;;0.70;99.90;;;;;;1854768;76;21107;-72
2021/01/16 00:46:42;;;;;;;10.45;6.08;;;0.70;99.90;;;;;;1865532;77;21081;-72
2021/01/16 00:49:08;;;;;;;11.48;6.03;;;0.70;99.90;;;;;;1866070;76;21057;-72
2021/01/16 00:51:35;;;;;;;10.15;5.47;;;0.70;99.90;;;;;;1863474;77;21077;-72
2021/01/16 00:54:01;;;;;;;10.90;6.17;;;0.70;99.90;;;;;;1863739;77;21183;-72
2021/01/16 00:56:27;;;;;;;10.95;6.47;;;0.70;99.90;;;;;;1867137;77;21077;-72
2021/01/16 00:58:53;;;;;;;14.20;6.10;;;0.70;99.90;;;;;;1871621;77;21096;-71
2021/01/16 01:01:19;;;;;;;10.58;6.17;;;0.80;99.90;;;;;;1867681;77;21053;-72
2021/01/16 01:03:45;;;;;;;12.10;6.75;;;0.70;99.90;;;;;;1867243;77;21543;-72
2021/01/16 01:06:11;;;;;;;10.78;6.00;;;0.60;99.90;;;;;;1866509;77;21497;-72
2021/01/16 01:08:37;;;;;;;8.13;5.22;;;0.60;99.90;;;;;;1862830;77;21585;-73
2021/01/16 01:11:03;;;;;;;13.40;6.45;;;0.60;99.90;;;;;;1864489;76;21112;-72
2021/01/16 01:13:30;;;;;;;14.45;6.87;;;0.60;99.90;;;;;;1862976;77;21147;-72
2021/01/16 01:15:56;;;;;;;9.08;5.85;;;0.60;99.90;;;;;;1864033;76;21186;-72
2021/01/16 01:18:22;;;;;;;10.15;6.42;;;0.60;99.90;;;;;;1867651;77;21050;-71
2021/01/16 01:20:48;;;;;;;9.45;5.85;;;0.60;99.90;;;;;;1867093;77;21078;-72
2021/01/16 01:23:14;;;;;;;11.80;6.75;;;0.60;99.90;;;;;;1867973;77;21096;-72
2021/01/16 01:25:41;;;;;;;7.47;5.20;;;0.60;99.90;;;;;;1862631;76;21057;-72
2021/01/16 01:28:07;;;;;;;11.48;5.75;;;0.60;99.90;;;;;;1868401;77;21208;-73
2021/01/16 01:30:33;;;;;;;9.65;5.87;;;0.60;99.90;;;;;;1864014;77;21523;-72
2021/01/16 01:32:59;;;;;;;13.75;6.15;;;0.70;99.90;;;;;;1867670;75;21077;-72
2021/01/16 01:35:25;;;;;;;12.73;5.83;;;0.70;99.90;;;;;;1868375;77;21096;-72
2021/01/16 01:37:51;;;;;;;16.87;6.58;;;0.60;99.90;;;;;;1868990;77;21146;-71
2021/01/16 01:40:17;;;;;;;12.50;6.03;;;0.70;99.90;;;;;;1868123;76;21084;-72
2021/01/16 01:42:43;;;;;;;12.45;6.55;;;0.70;99.90;;;;;;1861698;77;21081;-70
2021/01/16 01:45:10;;;;;;;9.60;5.03;;;0.70;99.90;;;;;;1857724;77;21072;-71
2021/01/16 01:47:36;;;;;;;11.45;6.80;;;0.60;99.90;;;;;;1867798;76;21124;-71
2021/01/16 01:50:02;;;;;;;14.53;7.53;;;0.70;99.90;;;;;;1868770;76;21057;-72
2021/01/16 01:52:28;;;;;;;13.78;5.47;;;0.70;99.90;;;;;;1870454;77;21076;-72
2021/01/16 01:54:54;;;;;;;11.95;6.03;;;0.60;99.90;;;;;;1871930;77;21084;-72
2021/01/16 01:57:20;;;;;;;9.03;5.80;;;0.60;99.90;;;;;;1868294;77;21073;-72
2021/01/16 01:59:47;;;;;;;9.58;5.65;;;0.70;99.90;;;;;;1863732;77;21150;-72
2021/01/16 02:02:13;;;;;;;9.95;5.75;;;0.70;99.90;;;;;;1864633;77;21084;-72
2021/01/16 02:04:39;;;;;;;10.98;6.53;;;0.60;99.90;;;;;;1863258;75;21146;-72
2021/01/16 02:07:05;;;;;;;11.83;6.25;;;0.60;99.90;;;;;;1867493;77;21124;-72
2021/01/16 02:09:31;;;;;;;13.35;6.50;;;0.60;99.90;;;;;;1867245;77;21026;-72
2021/01/16 02:11:57;;;;;;;12.00;6.50;;;0.60;99.90;;;;;;1867705;77;21069;-72
2021/01/16 02:14:23;;;;;;;12.75;6.65;;;0.60;99.90;;;;;;1864089;77;21136;-72
2021/01/16 02:16:49;;;;;;;13.65;7.03;;;0.60;99.90;;;;;;1867046;76;21163;-72
2021/01/16 02:19:16;;;;;;;11.12;6.62;;;0.50;99.90;;;;;;1867662;77;21190;-71
2021/01/16 02:21:42;;;;;;;10.95;6.45;;;0.60;99.90;;;;;;1867436;77;21208;-71
2021/01/16 02:24:08;;;;;;;13.15;7.10;;;0.60;99.90;;;;;;1863098;77;21050;-72
2021/01/16 02:26:34;;;;;;;11.08;6.15;;;0.60;99.90;;;;;;1863034;77;21473;-72
2021/01/16 02:29:00;;;;;;;11.10;5.62;;;0.50;99.90;;;;;;1872142;77;21441;-72
2021/01/16 02:31:26;;;;;;;10.75;6.03;;;0.50;99.90;;;;;;1866988;75;21582;-72
2021/01/16 02:33:52;;;;;;;15.08;7.08;;;0.60;99.90;;;;;;1858850;76;21536;-71
2021/01/16 02:36:18;;;;;;;11.35;6.65;;;0.60;99.90;;;;;;1867530;77;21049;-73
2021/01/16 02:38:45;;;;;;;14.70;6.78;;;0.60;99.90;;;;;;1862863;76;21077;-73
2021/01/16 02:41:11;;;;;;;11.53;6.37;;;0.70;99.90;;;;;;1860407;77;21049;-72
2021/01/16 02:43:37;;;;;;;12.63;6.90;;;0.70;99.90;;;;;;1867484;77;21134;-72
2021/01/16 02:46:03;;;;;;;13.53;6.53;;;0.60;99.90;;;;;;1857794;77;21134;-71
2021/01/16 02:48:29;;;;;;;9.15;5.42;;;0.60;99.90;;;;;;1864892;77;21077;-71
2021/01/16 02:50:55;;;;;;;9.90;5.45;;;0.70;99.90;;;;;;1858746;77;21093;-71
2021/01/16 02:53:21;;;;;;;14.03;7.35;;;0.70;99.90;;;;;;1872138;77;21072;-72
2021/01/16 02:55:47;;;;;;;12.43;6.42;;;0.70;99.90;;;;;;1867530;77;21138;-72
2021/01/16 02:58:13;;;;;;;10.40;5.95;;;0.60;99.90;;;;;;1863720;75;21200;-71
2021/01/16 03:00:40;;;;;;;15.18;7.30;;;0.60;99.90;;;;;;1863155;77;21080;-72
2021/01/16 03:03:06;;;;;;;15.28;7.35;;;0.60;99.90;;;;;;1868231;77;21109;-72
2021/01/16 03:05:32;;;;;;;11.40;6.80;;;0.60;99.90;;;;;;1872222;77;21414;-72
2021/01/16 03:07:58;;;;;;;14.10;6.83;;;0.60;99.90;;;;;;1865530;77;21596;-72
2021/01/16 03:10:24;;;;;;;10.20;5.75;;;0.60;99.90;;;;;;1870459;77;21504;-72
2021/01/16 03:12:50;;;;;;;16.20;6.72;;;0.70;99.90;;;;;;1867719;76;21076;-72
2021/01/16 03:15:16;;;;;;;13.53;6.33;;;0.70;99.90;;;;;;1867291;77;21068;-72
2021/01/16 03:17:42;;;;;;;9.53;6.08;;;0.60;99.90;;;;;;1866628;76;21146;-71
2021/01/16 03:20:09;;;;;;;16.25;6.90;;;0.60;99.90;;;;;;1861398;77;21080;-72
2021/01/16 03:22:35;;;;;;;13.62;6.67;;;0.70;99.90;;;;;;1871401;76;21088;-71
2021/01/16 03:25:01;;;;;;;11.95;6.95;;;0.70;99.90;;;;;;1864606;76;21088;-72
2021/01/16 03:27:27;;;;;;;12.20;6.65;;;0.60;99.90;;;;;;1872243;77;21073;-72
2021/01/16 03:29:53;;;;;;;11.28;6.12;;;0.70;99.90;;;;;;1871548;76;21100;-72
2021/01/16 03:32:19;;;;;;;12.05;6.65;;;0.60;99.90;;;;;;1859120;75;21497;-73
2021/01/16 03:34:45;;;;;;;15.48;7.03;;;0.60;99.90;;;;;;1859546;75;21551;-73
2021/01/16 03:37:11;;;;;;;15.48;7.75;;;0.70;99.90;;;;;;1862810;77;21481;-73
2021/01/16 03:39:38;;;;;;;11.10;6.42;;;0.70;99.90;;;;;;1859342;77;21076;-73
2021/01/16 03:42:04;;;;;;;15.93;7.22;;;0.70;99.90;;;;;;1871735;77;21150;-74
2021/01/16 03:44:30;;;;;;;20.97;7.00;;;0.70;99.90;;;;;;1867714;77;21142;-73
2021/01/16 03:46:56;;;;;;;10.28;6.70;;;0.70;99.90;;;;;;1862132;77;21077;-73
2021/01/16 03:49:22;;;;;;;10.53;6.10;;;0.70;99.90;;;;;;1863594;77;21072;-73
2021/01/16 03:51:48;;;;;;;13.65;7.53;;;0.70;99.90;;;;;;1858375;77;21022;-72
2021/01/16 03:54:14;;;;;;;15.98;7.50;;;0.70;99.90;;;;;;1870557;77;21146;-73
2021/01/16 03:56:40;;;;;;;12.95;6.90;;;0.70;99.90;;;;;;1869433;77;21142;-73
2021/01/16 03:59:07;;;;;;;13.00;6.60;;;0.80;99.90;;;;;;1867508;77;21068;-72
2021/01/16 04:01:33;;;;;;;14.78;8.03;;;0.70;99.90;;;;;;1862096;77;21138;-72
2021/01/16 04:03:59;;;;;;;13.20;7.20;;;0.70;99.90;;;;;;1869450;76;21151;-72
2021/01/16 04:06:25;;;;;;;16.25;8.23;;;0.70;99.90;;;;;;1867047;76;21053;-72
2021/01/16 04:08:51;;;;;;;17.98;8.28;;;0.60;99.90;;;;;;1864277;77;21049;-73
2021/01/16 04:11:17;;;;;;;12.65;7.25;;;0.60;99.90;;;;;;1860243;77;21045;-73
2021/01/16 04:13:43;;;;;;;14.93;7.35;;;0.70;99.90;;;;;;1859721;77;21138;-73
2021/01/16 04:16:09;;;;;;;11.63;7.45;;;0.70;99.90;;;;;;1864199;77;21072;-72
2021/01/16 04:18:36;;;;;;;12.75;7.55;;;0.70;99.90;;;;;;1867798;77;21116;-73
2021/01/16 04:21:02;;;;;;;14.07;8.10;;;0.70;99.90;;;;;;1864423;76;21081;-73
2021/01/16 04:23:28;;;;;;;13.98;6.83;;;0.70;99.90;;;;;;1865232;77;21073;-72
2021/01/16 04:25:54;;;;;;;14.47;7.80;;;0.70;99.90;;;;;;1867692;77;21084;-72
2021/01/16 04:28:20;;;;;;;14.43;7.42;;;0.70;99.90;;;;;;1871081;77;21073;-72
2021/01/16 04:30:46;;;;;;;14.20;7.03;;;0.60;99.90;;;;;;1870784;77;21179;-72
2021/01/16 04:33:12;;;;;;;13.43;7.45;;;0.70;99.90;;;;;;1870728;77;21142;-72
2021/01/16 04:35:38;;;;;;;15.93;6.62;;;0.80;99.90;;;;;;1866322;77;21046;-73
2021/01/16 04:38:04;;;;;;;12.40;7.37;;;0.80;99.90;;;;;;1871965;77;21586;-72
2021/01/16 04:40:31;;;;;;;15.55;7.67;;;0.80;99.90;;;;;;1867560;76;21437;-72
2021/01/16 04:42:57;;;;;;;15.20;7.87;;;0.70;99.90;;;;;;1868200;77;21500;-73
2021/01/16 04:45:23;;;;;;;14.40;7.67;;;0.60;99.90;;;;;;1862326;77;21139;-72
2021/01/16 04:47:49;;;;;;;14.73;7.33;;;0.60;99.90;;;;;;1865623;77;21143;-73
2021/01/16 04:50:15;;;;;;;17.40;7.05;;;0.50;99.90;;;;;;1872667;77;21128;-72
2021/01/16 04:52:42;;;;;;;12.00;7.03;;;0.50;99.90;;;;;;1863696;75;21046;-73
2021/01/16 04:55:08;;;;;;;15.48;7.20;;;0.60;99.90;;;;;;1867676;77;21131;-72
2021/01/16 04:57:34;;;;;;;16.30;7.78;;;0.70;99.90;;;;;;1867419;77;21546;-72
2021/01/16 05:00:00;;;;;;;12.25;7.55;;;0.70;99.90;;;;;;1857660;76;21068;-72
2021/01/16 05:02:26;;;;;;;13.28;7.67;;;0.70;99.90;;;;;;1862716;76;21197;-71
2021/01/16 05:04:52;;;;;;;12.98;7.35;;;0.60;99.90;;;;;;1859188;77;21076;-72
2021/01/16 05:07:19;;;;;;;19.05;7.47;;;0.60;99.90;;;;;;1856861;77;21075;-72
2021/01/16 05:09:45;;;;;;;13.55;7.05;;;0.70;99.90;;;;;;1862432;77;21388;-71
2021/01/16 05:12:11;;;;;;;15.13;7.17;;;0.70;99.90;;;;;;1867320;77;21431;-72
2021/01/16 05:14:37;;;;;;;17.95;8.90;;;0.70;99.90;;;;;;1862352;77;21464;-72
2021/01/16 05:17:04;;;;;;;19.35;8.13;;;0.80;99.90;;;;;;1867530;75;21511;-73
2021/01/16 05:19:30;;;;;;;20.60;7.97;;;0.80;99.90;;;;;;1863516;77;21068;-72
2021/01/16 05:21:56;;;;;;;16.10;7.80;;;0.90;99.90;;;;;;1871162;77;21182;-72
2021/01/16 05:24:22;;;;;;;14.45;8.03;;;0.80;99.90;;;;;;1867934;77;21073;-71
2021/01/16 05:26:48;;;;;;;13.62;7.87;;;0.80;99.90;;;;;;1850101;76;21045;-71
2021/01/16 05:29:14;;;;;;;17.35;7.85;;;0.90;99.90;;;;;;1859037;77;21073;-71
2021/01/16 05:31:40;;;;;;;14.53;6.67;;;0.80;99.90;;;;;;1860887;77;21143;-71
2021/01/16 05:34:06;;;;;;;15.48;7.58;;;0.70;99.90;;;;;;1868897;77;21143;-72
2021/01/16 05:36:32;;;;;;;14.20;7.75;;;0.60;99.90;;;;;;1868343;76;21073;-71
2021/01/16 05:38:59;;;;;;;14.35;8.53;;;0.60;99.90;;;;;;1867908;77;21143;-72
2021/01/16 05:41:25;;;;;;;16.35;8.65;;;0.60;99.90;;;;;;1859557;77;21077;-73
2021/01/16 05:43:51;;;;;;;15.03;9.03;;;0.60;99.90;;;;;;1870477;77;21139;-71
2021/01/16 05:46:17;;;;;;;16.97;8.38;;;0.50;99.90;;;;;;1868440;77;21166;-71
2021/01/16 05:48:43;;;;;;;18.02;7.92;;;0.60;99.90;;;;;;1867745;75;21077;-73
2021/01/16 05:51:09;;;;;;;15.35;8.65;;;0.60;99.90;;;;;;1867554;77;21148;-71
2021/01/16 05:53:35;;;;;;;15.25;7.50;;;0.50;99.90;;;;;;1871674;77;21112;-72
2021/01/16 05:56:01;;;;;;;13.15;8.30;;;0.60;99.90;;;;;;1872030;77;21112;-71
2021/01/16 05:58:28;;;;;;;16.17;8.93;;;0.60;99.90;;;;;;1868219;76;21065;-72
2021/01/16 06:00:54;;;;;;;15.38;8.28;;;0.70;99.90;;;;;;1867872;77;21076;-73
2021/01/16 06:03:20;;;;;;;27.10;8.55;;;0.60;99.90;;;;;;1862123;76;21077;-73
2021/01/16 06:05:46;;;;;;;20.57;8.35;;;0.70;99.90;;;;;;1870135;77;21123;-72
2021/01/16 06:08:12;;;;;;;15.98;8.05;;;0.70;99.90;;;;;;1860577;76;21509;-72
2021/01/16 06:10:38;;;;;;;15.03;7.95;;;0.70;99.90;;;;;;1871753;76;21505;-72
2021/01/16 06:13:04;;;;;;;14.68;7.70;;;0.70;99.90;;;;;;1862615;77;21139;-72
2021/01/16 06:15:31;;;;;;;15.63;8.10;;;0.70;99.90;;;;;;1868225;77;21053;-72
2021/01/16 06:17:57;;;;;;;14.40;7.95;;;0.70;99.90;;;;;;1860151;76;21084;-73
2021/01/16 06:20:23;;;;;;;14.65;6.72;;;0.80;99.90;;;;;;1870632;76;21080;-73
2021/01/16 06:22:52;;;;;;;15.60;8.18;;;0.80;99.90;;;;;;1863104;75;21150;-72
2021/01/16 06:25:19;;;;;;;21.40;7.75;;;0.70;99.90;;;;;;1868069;75;21069;-72
2021/01/16 06:27:45;;;;;;;14.40;7.70;;;0.70;99.90;;;;;;1864158;77;21061;-72
2021/01/16 06:30:11;;;;;;;25.27;9.50;;;0.70;99.90;;;;;;1871187;77;21065;-72
2021/01/16 06:32:37;;;;;;;13.75;7.55;;;0.60;99.90;;;;;;1864353;77;21089;-72
2021/01/16 06:35:03;;;;;;;13.53;7.72;;;0.60;99.90;;;;;;1864124;77;21076;-73
2021/01/16 06:37:30;;;;;;;11.28;7.83;;;0.70;99.90;;;;;;1867744;77;21073;-73
2021/01/16 06:39:56;;;;;;;17.40;8.05;;;0.60;99.90;;;;;;1869747;75;21661;-73
2021/01/16 06:42:23;;;;;;;20.05;7.90;;;0.70;99.90;;;;;;1866803;77;21502;-72
2021/01/16 06:44:49;;;;;;;18.90;7.90;;;0.70;99.90;;;;;;1871209;75;21512;-72
2021/01/16 06:47:15;;;;;;;15.28;7.90;;;0.80;99.90;;;;;;1865005;77;21154;-71
2021/01/16 06:49:41;;;;;;;15.45;7.87;;;0.70;99.90;;;;;;1866718;76;21187;-73
2021/01/16 06:52:07;;;;;;;15.13;7.90;;;0.60;99.90;;;;;;1868742;75;21080;-71
2021/01/16 06:54:33;;;;;;;11.73;7.05;;;0.60;99.90;;;;;;1868705;77;21085;-72
2021/01/16 06:56:59;;;;;;;15.05;7.85;;;0.60;99.90;;;;;;1863184;77;21042;-73
2021/01/16 06:59:25;;;;;;;21.30;8.30;;;0.70;99.90;;;;;;1866148;76;21069;-72
2021/01/16 07:01:51;;;;;;;14.60;8.55;;;0.70;99.90;;;;;;1874941;77;21116;-72
2021/01/16 07:04:18;;;;;;;20.37;9.50;;;0.70;99.90;;;;;;1870621;75;21062;-75
2021/01/16 07:06:44;;;;;;;18.20;8.18;;;0.70;99.90;;;;;;1865919;77;21052;-75
2021/01/16 07:09:10;;;;;;;14.60;8.03;;;0.70;99.90;;;;;;1862593;76;21118;-75
2021/01/16 07:11:36;;;;;;;18.52;8.45;;;0.80;99.90;;;;;;1872363;76;21208;-74
2021/01/16 07:14:02;;;;;;;20.00;8.70;;;0.70;99.90;;;;;;1867195;76;21053;-75
2021/01/16 07:16:28;;;;;;;16.25;8.15;;;0.70;99.90;;;;;;1860228;77;21080;-73
2021/01/16 07:18:55;;;;;;;16.82;8.65;;;0.70;99.90;;;;;;1868220;77;21080;-73
2021/01/16 07:21:21;;;;;;;13.60;8.03;;;0.70;99.90;;;;;;1862216;77;21147;-70
2021/01/16 07:23:47;;;;;;;13.70;7.70;;;0.70;99.90;;;;;;1867835;77;21147;-72
2021/01/16 07:26:13;;;;;;;18.82;8.35;;;0.80;99.90;;;;;;1872744;77;21085;-72
2021/01/16 07:28:40;;;;;;;17.17;8.40;;;0.80;99.90;;;;;;1855782;76;21159;-72
2021/01/16 07:31:06;;;;;;;14.68;8.00;;;0.80;99.90;;;;;;1868259;77;21117;-73
2021/01/16 07:33:32;;;;;;;14.13;8.30;;;0.80;99.90;;;;;;1872363;77;21057;-72
2021/01/16 07:35:59;;;;;;;16.25;8.85;;;0.80;99.90;;;;;;1872842;77;21081;-73
2021/01/16 07:38:25;;;;;;;22.87;9.05;;;0.80;99.90;;;;;;1864744;77;21501;-72
2021/01/16 07:40:51;;;;;;;17.60;8.10;;;0.70;99.90;;;;;;1868459;75;21574;-74
2021/01/16 07:43:17;;;;;;;18.25;8.45;;;0.60;99.90;;;;;;1864162;77;21147;-73
2021/01/16 07:45:43;;;;;;;16.07;8.40;;;0.70;99.90;;;;;;1868257;77;21077;-73
2021/01/16 07:48:09;;;;;;;16.77;8.55;;;0.70;99.90;;;;;;1860356;77;21077;-75
2021/01/16 07:50:35;;;;;;;22.93;9.10;;;0.60;99.90;;;;;;1867224;77;21081;-75
2021/01/16 07:53:01;;;;;;;16.20;8.55;;;0.50;99.90;;;;;;1864107;77;21065;-74
2021/01/16 07:55:28;;;;;;;19.90;9.40;;;0.50;99.90;;;;;;1864785;77;21142;-73
2021/01/16 07:57:54;;;;;;;15.75;8.48;;;0.50;99.90;;;;;;1872246;77;21080;-74
2021/01/16 08:00:20;;;;;;;19.07;8.75;;;0.60;99.90;;;;;;1860355;77;21158;-73
2021/01/16 08:02:46;;;;;;;16.30;8.83;;;0.60;99.90;;;;;;1872208;77;21598;-73
2021/01/16 08:05:12;;;;;;;18.55;9.43;;;0.60;99.90;;;;;;1871671;77;21510;-72
2021/01/16 08:07:38;;;;;;;17.00;9.08;;;0.70;99.90;;;;;;1867325;76;21422;-72
2021/01/16 08:10:04;;;;;;;17.35;9.55;;;0.70;99.90;;;;;;1860168;77;21581;-72
2021/01/16 08:12:30;;;;;;;19.67;9.03;;;0.80;99.90;;;;;;1868199;76;21150;-73
2021/01/16 08:14:57;;;;;;;15.83;7.83;;;0.90;99.90;;;;;;1864482;77;21108;-73
2021/01/16 08:17:23;;;;;;;15.68;8.18;;;0.90;99.90;;;;;;1857333;77;21076;-73
2021/01/16 08:19:49;;;;;;;27.02;9.40;;;0.80;99.90;;;;;;1866979;76;21072;-75
2021/01/16 08:22:15;;;;;;;18.40;9.15;;;0.80;99.90;;;;;;1868761;77;21151;-75
2021/01/16 08:24:41;;;;;;;23.60;9.93;;;0.70;99.90;;;;;;1868717;77;21053;-74
2021/01/16 08:27:07;;;;;;;16.85;8.83;;;0.80;99.90;;;;;;1870929;77;21080;-72
2021/01/16 08:29:33;;;;;;;11.70;8.03;;;1.00;99.90;;;;;;1855689;77;21065;-73
2021/01/16 08:32:00;;;;;;;21.35;9.40;;;0.80;99.90;;;;;;1864739;77;21077;-74
2021/01/16 08:34:26;;;;;;;15.45;8.85;;;0.80;99.90;;;;;;1867127;76;21085;-74
2021/01/16 08:36:52;;;;;;;21.33;9.33;;;0.80;99.90;;;;;;1863411;77;21150;-74
2021/01/16 08:39:18;;;;;;;18.02;9.83;;;0.60;99.90;;;;;;1868185;77;21112;-75
2021/01/16 08:41:44;;;;;;;16.65;10.18;;;0.60;99.90;;;;;;1858792;77;21054;-73
2021/01/16 08:44:10;;;;;;;19.12;9.88;;;0.50;99.90;;;;;;1866707;77;21142;-75
2021/01/16 08:46:36;;;;;;;20.77;10.58;;;0.50;99.90;;;;;;1859541;77;21125;-74
2021/01/16 08:49:02;;;;;;;16.57;8.75;;;0.60;99.90;;;;;;1864500;77;21072;-73
2021/01/16 08:51:28;;;;;;;19.57;9.78;;;0.50;99.90;;;;;;1868651;77;21081;-73
2021/01/16 08:53:55;;;;;;;20.37;10.18;;;0.50;99.90;;;;;;1863861;77;21049;-73
2021/01/16 08:56:21;;;;;;;16.97;9.15;;;0.40;99.90;;;;;;1861847;77;21151;-73
2021/01/16 08:58:47;;;;;;;19.12;10.28;;;0.60;99.90;;;;;;1859184;77;21509;-73
2021/01/16 09:01:13;;;;;;;20.70;9.58;;;0.50;99.90;;;;;;1867698;77;21468;-73
2021/01/16 09:03:39;;;;;;;17.82;9.60;;;0.60;99.90;;;;;;1859612;77;21598;-74
2021/01/16 09:06:06;;;;;;;18.35;10.03;;;0.60;99.90;;;;;;1864782;77;21053;-77
2021/01/16 09:08:32;;;;;;;13.10;8.45;;;0.50;99.90;;;;;;1871772;77;21057;-75
2021/01/16 09:10:58;;;;;;;23.18;10.28;;;0.50;99.90;;;;;;1872028;77;21138;-75
2021/01/16 09:13:24;;;;;;;14.83;8.80;;;0.40;99.90;;;;;;1866284;76;21139;-75
2021/01/16 09:15:50;;;;;;;18.65;9.65;;;0.40;99.90;;;;;;1864523;77;21077;-75
2021/01/16 09:18:17;;;;;;;17.95;9.13;;;0.60;99.90;;;;;;1867129;77;21116;-75
2021/01/16 09:20:43;;;;;;;16.55;8.70;;;0.60;99.90;;;;;;1868110;77;21068;-75
2021/01/16 09:23:09;;;;;;;18.75;9.55;;;0.60;99.90;;;;;;1863690;77;21084;-75
2021/01/16 09:25:35;;;;;;;19.02;10.15;;;0.60;99.90;;;;;;1863707;75;21085;-75
2021/01/16 09:28:01;;;;;;;20.12;8.43;;;0.60;99.90;;;;;;1855723;75;21050;-74
2021/01/16 09:30:31;;;;;;;17.23;9.05;;;0.50;99.90;;;;;;1868281;77;21151;-75
2021/01/16 09:32:57;;;;;;;15.35;8.40;;;0.50;99.90;;;;;;1866746;77;21151;-75
2021/01/16 09:35:23;;;;;;;15.08;9.23;;;0.50;99.90;;;;;;1861121;77;21054;-72
2021/01/16 09:37:50;;;;;;;24.77;9.93;;;0.60;99.90;;;;;;1871341;77;21076;-73
2021/01/16 09:40:16;;;;;;;24.75;9.00;;;0.60;99.90;;;;;;1871703;77;21139;-73
2021/01/16 09:42:42;;;;;;;17.32;9.70;;;0.60;99.90;;;;;;1855753;76;21076;-73
2021/01/16 09:45:08;;;;;;;17.35;8.15;;;0.60;99.90;;;;;;1867542;77;21084;-73
2021/01/16 09:47:35;;;;;;;18.30;10.08;;;0.70;99.90;;;;;;1868747;77;21147;-73
2021/01/16 09:50:01;;;;;;;21.93;9.60;;;0.70;99.90;;;;;;1863150;77;21134;-72
2021/01/16 09:52:27;;;;;;;17.48;9.70;;;0.60;99.90;;;;;;1864274;77;21104;-72
2021/01/16 09:54:53;;;;;;;18.48;9.90;;;0.80;99.90;;;;;;1864583;76;21131;-74
2021/01/16 09:57:19;;;;;;;20.85;10.55;;;0.90;99.90;;;;;;1859625;76;21065;-75
2021/01/16 09:59:45;;;;;;;17.98;9.20;;;0.90;99.90;;;;;;1869507;77;21073;-75
2021/01/16 10:02:11;;;;;;;27.27;11.22;;;1.00;99.90;;;;;;1865463;76;21046;-74
2021/01/16 10:04:37;;;;;;;20.35;10.20;;;1.10;99.90;;;;;;1867050;77;21112;-74
2021/01/16 10:07:03;;;;;;;17.05;9.23;;;1.30;99.90;;;;;;1865170;77;21157;-77
2021/01/16 10:09:30;;;;;;;18.02;9.30;;;1.40;99.90;;;;;;1870420;77;21081;-72
2021/01/16 10:11:56;;;;;;;17.48;8.80;;;1.50;99.90;;;;;;1865138;77;21150;-72
2021/01/16 10:14:22;;;;;;;16.05;8.70;;;1.40;99.90;;;;;;1868790;77;21097;-77
2021/01/16 10:16:48;;;;;;;17.77;8.73;;;1.30;99.90;;;;;;1867287;77;21509;-77
2021/01/16 10:19:14;;;;;;;13.03;8.20;;;1.00;99.90;;;;;;1859736;77;21492;-77
2021/01/16 10:21:42;;;;;;;20.80;8.88;;;0.90;99.90;;;;;;1860116;77;21076;-74
2021/01/16 10:24:08;;;;;;;21.70;10.35;;;1.00;99.90;;;;;;1863163;76;21162;-74
2021/01/16 10:26:34;;;;;;;15.43;8.80;;;1.00;99.90;;;;;;1866971;77;21159;-73
2021/01/16 10:29:00;;;;;;;26.27;8.15;;;1.10;99.90;;;;;;1861983;77;21054;-72
2021/01/16 10:31:27;;;;;;;11.45;7.25;;;1.40;99.90;;;;;;1864452;77;21453;-74
2021/01/16 10:33:53;;;;;;;11.40;6.80;;;1.50;99.90;;;;;;1871408;77;21092;-76
2021/01/16 10:36:19;;;;;;;12.95;7.12;;;1.60;99.90;;;;;;1864688;77;21056;-76
2021/01/16 10:38:45;;;;;;;13.32;6.72;;;1.60;99.90;;;;;;1865052;77;21084;-74
2021/01/16 10:41:12;;;;;;;13.10;7.35;;;1.60;99.90;;;;;;1858042;75;21088;-73
2021/01/16 10:43:38;;;;;;;14.65;7.45;;;1.50;99.90;;;;;;1865923;77;21096;-73
2021/01/16 10:46:04;;;;;;;12.35;7.22;;;1.50;99.90;;;;;;1862089;77;21061;-70
2021/01/16 10:48:30;;;;;;;10.00;5.95;;;1.60;99.90;;;;;;1867413;75;21153;-72
2021/01/16 10:50:56;;;;;;;14.45;7.22;;;1.80;99.90;;;;;;1867654;77;21507;-71
2021/01/16 10:53:22;;;;;;;16.15;8.25;;;1.80;99.90;;;;;;1868056;76;21479;-70
2021/01/16 10:55:50;;;;;;;12.90;6.62;;;1.70;99.90;;;;;;1863588;77;21550;-71
2021/01/16 10:58:16;;;;;;;19.40;7.35;;;1.50;99.90;;;;;;1864180;76;21169;-71
2021/01/16 11:00:42;;;;;;;12.68;6.87;;;1.50;99.90;;;;;;1865570;77;21057;-71
2021/01/16 11:03:09;;;;;;;19.48;6.58;;;1.50;99.90;;;;;;1871071;76;21069;-72
2021/01/16 11:05:35;;;;;;;10.32;6.53;;;1.60;99.90;;;;;;1866489;77;21131;-71
2021/01/16 11:08:01;;;;;;;11.90;6.45;;;1.80;99.90;;;;;;1863504;77;21085;-71
2021/01/16 11:10:27;;;;;;;10.58;5.95;;;1.90;99.90;;;;;;1871529;77;21170;-72
2021/01/16 11:12:53;;;;;;;12.18;5.80;;;1.90;99.90;;;;;;1867501;77;21100;-72
2021/01/16 11:15:19;;;;;;;8.60;5.25;;;1.90;99.90;;;;;;1869340;75;21084;-72
2021/01/16 11:17:46;;;;;;;9.53;5.33;;;1.90;99.90;;;;;;1862597;77;21089;-72
2021/01/16 11:20:12;;;;;;;9.65;4.58;;;2.00;99.90;;;;;;1866068;77;21096;-72
2021/01/16 11:22:38;;;;;;;7.42;4.20;;;1.80;99.90;;;;;;1866010;75;21156;-70
2021/01/16 11:25:06;;;;;;;10.23;4.05;;;2.00;99.90;;;;;;1866778;77;21457;-71
2021/01/16 11:27:32;;;;;;;4.67;3.30;;;2.10;99.90;;;;;;1863354;75;21150;-70
2021/01/16 11:29:58;;;;;;;9.03;4.17;;;2.20;99.90;;;;;;1863704;77;21061;-70
2021/01/16 11:32:24;;;;;;;6.97;4.22;;;2.20;99.90;;;;;;1859789;77;21077;-73
2021/01/16 11:34:50;;;;;;;14.83;5.37;;;2.30;99.90;;;;;;1867375;77;21151;-72
2021/01/16 11:37:16;;;;;;;8.15;5.22;;;2.40;99.90;;;;;;1864111;77;21128;-72
2021/01/16 11:39:42;;;;;;;8.13;4.65;;;2.50;99.90;;;;;;1866501;76;21153;-72
2021/01/16 11:42:09;;;;;;;11.73;5.60;;;2.60;99.90;;;;;;1866484;76;21574;-75
2021/01/16 11:44:35;;;;;;;10.93;5.92;;;2.60;99.90;;;;;;1867994;76;21510;-75
2021/01/16 11:47:01;;;;;;;13.03;5.92;;;2.70;99.90;;;;;;1863616;77;21057;-75
2021/01/16 11:49:27;;;;;;;14.43;6.35;;;3.80;99.90;;;;;;1867967;77;21076;-75
2021/01/16 11:51:53;;;;;;;15.83;7.00;;;4.10;99.90;;;;;;1858446;76;21107;-75
2021/01/16 11:54:19;;;;;;;12.40;6.60;;;3.70;99.90;;;;;;1865104;76;21072;-74
2021/01/16 11:56:45;;;;;;;14.35;6.40;;;3.20;99.90;;;;;;1872154;76;21085;-75
2021/01/16 11:59:11;;;;;;;17.75;7.85;;;3.00;99.90;;;;;;1860317;77;21053;-74
2021/01/16 12:01:38;;;;;;;8.53;5.53;;;2.70;99.90;;;;;;1861240;77;21212;-77
2021/01/16 12:04:05;;;;;;;8.18;5.75;;;2.50;99.90;;;;;;1863524;77;21216;-77
2021/01/16 12:06:31;;;;;;;7.33;4.72;;;2.60;99.90;;;;;;1872519;77;21065;-76
2021/01/16 12:08:57;;;;;;;14.35;6.37;;;2.40;99.90;;;;;;1867165;77;21141;-82
2021/01/16 12:11:23;;;;;;;13.32;6.15;;;2.30;99.90;;;;;;1871968;77;21044;-80
2021/01/16 12:13:49;;;;;;;11.57;5.63;;;2.30;99.90;;;;;;1870519;76;21085;-78
2021/01/16 12:16:15;;;;;;;8.40;4.75;;;2.20;99.90;;;;;;1868396;75;21093;-76
2021/01/16 12:18:41;;;;;;;8.70;5.67;;;2.30;99.90;;;;;;1865800;77;21208;-80
2021/01/16 12:21:15;;;;;;;9.85;5.60;;;2.40;99.90;;;;;;1861758;77;21119;-76
2021/01/16 12:23:37;;;;;;;8.93;5.17;;;2.20;99.90;;;;;;1856984;77;21440;-75
2021/01/16 12:26:03;;;;;;;8.28;5.37;;;2.20;99.90;;;;;;1867422;76;21107;-77
2021/01/16 12:28:31;;;;;;;9.90;5.85;;;2.10;99.90;;;;;;1867033;77;21057;-73
2021/01/16 12:30:57;;;;;;;8.83;4.95;;;2.10;99.90;;;;;;1867531;77;21139;-75
2021/01/16 12:33:23;;;;;;;10.45;5.80;;;2.10;99.90;;;;;;1866965;77;21071;-76
2021/01/16 12:35:49;;;;;;;7.62;5.05;;;2.20;99.90;;;;;;1868036;77;21077;-76
2021/01/16 12:38:15;;;;;;;7.75;5.10;;;2.10;99.90;;;;;;1872058;76;21073;-75
2021/01/16 12:40:42;;;;;;;10.45;5.83;;;2.20;99.90;;;;;;1864761;77;21088;-74